sensor_id;sensor_type;location;lat;lon;timestamp;P1;durP1;ratioP1;P2;durP2;ratioP2
77798;SDS011;66989;50.426;15.352;2023-02-18T00:01:07;2.65;;;1.52;;
77798;SDS011;66989;50.426;15.352;2023-02-18T00:03:34;2.80;;;2.03;;
77798;SDS011;66989;50.426;15.352;2023-02-18T00:05:59;4.60;;;1.60;;
77798;SDS011;66989;50.426;15.352;2023-02-18T00:08:24;4.40;;;3.08;;
77798;SDS011;66989;50.426;15.352;2023-02-18T00:10:50;5.35;;;1.63;;
77798;SDS011;66989;50.426;15.352;2023-02-18T00:13:15;4.05;;;1.92;;
77798;SDS011;66989;50.426;15.352;2023-02-18T00:15:40;5.27;;;2.97;;
77798;SDS011;66989;50.426;15.352;2023-02-18T00:18:06;5.63;;;3.37;;
77798;SDS011;66989;50.426;15.352;2023-02-18T00:20:32;4.60;;;2.30;;
77798;SDS011;66989;50.426;15.352;2023-02-18T00:23:00;4.97;;;2.60;;
77798;SDS011;66989;50.426;15.352;2023-02-18T00:25:25;5.97;;;2.15;;
77798;SDS011;66989;50.426;15.352;2023-02-18T00:27:50;3.57;;;1.87;;
77798;SDS011;66989;50.426;15.352;2023-02-18T00:30:16;4.82;;;2.35;;
77798;SDS011;66989;50.426;15.352;2023-02-18T00:32:41;5.47;;;2.47;;
77798;SDS011;66989;50.426;15.352;2023-02-18T00:35:07;3.45;;;2.33;;
77798;SDS011;66989;50.426;15.352;2023-02-18T00:37:32;4.07;;;2.30;;
77798;SDS011;66989;50.426;15.352;2023-02-18T00:39:58;5.93;;;2.10;;
77798;SDS011;66989;50.426;15.352;2023-02-18T00:42:23;5.43;;;1.60;;
77798;SDS011;66989;50.426;15.352;2023-02-18T00:44:49;5.05;;;2.03;;
77798;SDS011;66989;50.426;15.352;2023-02-18T00:47:14;3.60;;;1.95;;
77798;SDS011;66989;50.426;15.352;2023-02-18T00:49:39;3.22;;;2.45;;
77798;SDS011;66989;50.426;15.352;2023-02-18T00:52:05;3.28;;;1.83;;
77798;SDS011;66989;50.426;15.352;2023-02-18T00:54:30;4.03;;;1.43;;
77798;SDS011;66989;50.426;15.352;2023-02-18T00:56:55;5.15;;;2.95;;
77798;SDS011;66989;50.426;15.352;2023-02-18T00:59:21;3.60;;;1.42;;
77798;SDS011;66989;50.426;15.352;2023-02-18T01:01:46;3.75;;;1.75;;
77798;SDS011;66989;50.426;15.352;2023-02-18T01:04:12;3.47;;;1.73;;
77798;SDS011;66989;50.426;15.352;2023-02-18T01:06:37;3.25;;;1.70;;
77798;SDS011;66989;50.426;15.352;2023-02-18T01:09:03;3.72;;;1.63;;
77798;SDS011;66989;50.426;15.352;2023-02-18T01:11:29;4.38;;;2.45;;
77798;SDS011;66989;50.426;15.352;2023-02-18T01:13:54;3.20;;;1.90;;
77798;SDS011;66989;50.426;15.352;2023-02-18T01:16:20;7.53;;;1.97;;
77798;SDS011;66989;50.426;15.352;2023-02-18T01:18:46;6.28;;;2.10;;
77798;SDS011;66989;50.426;15.352;2023-02-18T01:21:11;6.30;;;2.58;;
77798;SDS011;66989;50.426;15.352;2023-02-18T01:23:37;7.60;;;3.47;;
77798;SDS011;66989;50.426;15.352;2023-02-18T01:26:04;7.90;;;3.70;;
77798;SDS011;66989;50.426;15.352;2023-02-18T01:28:29;7.97;;;3.08;;
77798;SDS011;66989;50.426;15.352;2023-02-18T01:30:56;11.32;;;4.18;;
77798;SDS011;66989;50.426;15.352;2023-02-18T01:33:22;7.78;;;4.10;;
77798;SDS011;66989;50.426;15.352;2023-02-18T01:35:47;8.10;;;3.83;;
77798;SDS011;66989;50.426;15.352;2023-02-18T01:38:13;5.60;;;3.05;;
77798;SDS011;66989;50.426;15.352;2023-02-18T01:40:46;8.13;;;4.30;;
77798;SDS011;66989;50.426;15.352;2023-02-18T01:43:15;8.18;;;4.65;;
77798;SDS011;66989;50.426;15.352;2023-02-18T01:45:46;5.88;;;4.55;;
77798;SDS011;66989;50.426;15.352;2023-02-18T01:51:25;6.20;;;2.50;;
77798;SDS011;66989;50.426;15.352;2023-02-18T01:56:25;7.45;;;2.70;;
77798;SDS011;66989;50.426;15.352;2023-02-18T01:58:55;6.40;;;3.00;;
77798;SDS011;66989;50.426;15.352;2023-02-18T02:01:24;6.35;;;3.08;;
77798;SDS011;66989;50.426;15.352;2023-02-18T02:06:18;6.37;;;2.90;;
77798;SDS011;66989;50.426;15.352;2023-02-18T02:08:46;5.35;;;2.95;;
77798;SDS011;66989;50.426;15.352;2023-02-18T02:14:36;5.40;;;3.35;;
77798;SDS011;66989;50.426;15.352;2023-02-18T02:38:59;7.38;;;2.78;;
77798;SDS011;66989;50.426;15.352;2023-02-18T02:44:24;5.40;;;1.60;;
77798;SDS011;66989;50.426;15.352;2023-02-18T02:47:01;5.90;;;2.85;;
77798;SDS011;66989;50.426;15.352;2023-02-18T02:49:47;5.53;;;2.70;;
77798;SDS011;66989;50.426;15.352;2023-02-18T02:52:25;4.80;;;2.42;;
77798;SDS011;66989;50.426;15.352;2023-02-18T02:54:59;4.93;;;1.90;;
77798;SDS011;66989;50.426;15.352;2023-02-18T03:00:01;5.60;;;1.50;;
77798;SDS011;66989;50.426;15.352;2023-02-18T03:05:04;2.85;;;1.35;;
77798;SDS011;66989;50.426;15.352;2023-02-18T03:07:39;4.35;;;1.40;;
77798;SDS011;66989;50.426;15.352;2023-02-18T03:19:30;3.65;;;0.77;;
77798;SDS011;66989;50.426;15.352;2023-02-18T03:24:28;2.60;;;1.80;;
77798;SDS011;66989;50.426;15.352;2023-02-18T03:29:25;8.32;;;1.40;;
77798;SDS011;66989;50.426;15.352;2023-02-18T03:31:56;5.32;;;1.00;;
77798;SDS011;66989;50.426;15.352;2023-02-18T03:34:34;5.93;;;0.90;;
77798;SDS011;66989;50.426;15.352;2023-02-18T03:37:04;2.00;;;0.75;;
77798;SDS011;66989;50.426;15.352;2023-02-18T03:39:33;4.60;;;0.77;;
77798;SDS011;66989;50.426;15.352;2023-02-18T03:42:00;1.90;;;0.88;;
77798;SDS011;66989;50.426;15.352;2023-02-18T03:44:25;3.40;;;1.08;;
77798;SDS011;66989;50.426;15.352;2023-02-18T03:46:51;3.55;;;1.80;;
77798;SDS011;66989;50.426;15.352;2023-02-18T03:49:17;4.38;;;1.23;;
77798;SDS011;66989;50.426;15.352;2023-02-18T03:51:42;5.45;;;1.15;;
77798;SDS011;66989;50.426;15.352;2023-02-18T03:54:08;4.25;;;0.90;;
77798;SDS011;66989;50.426;15.352;2023-02-18T03:56:35;3.15;;;1.95;;
77798;SDS011;66989;50.426;15.352;2023-02-18T03:59:02;5.68;;;1.38;;
77798;SDS011;66989;50.426;15.352;2023-02-18T04:01:28;4.85;;;1.90;;
77798;SDS011;66989;50.426;15.352;2023-02-18T04:03:53;3.03;;;1.05;;
77798;SDS011;66989;50.426;15.352;2023-02-18T04:06:20;3.42;;;2.72;;
77798;SDS011;66989;50.426;15.352;2023-02-18T04:08:48;6.60;;;1.83;;
77798;SDS011;66989;50.426;15.352;2023-02-18T04:11:14;4.18;;;1.05;;
77798;SDS011;66989;50.426;15.352;2023-02-18T04:13:40;3.65;;;1.40;;
77798;SDS011;66989;50.426;15.352;2023-02-18T04:16:05;4.78;;;2.15;;
77798;SDS011;66989;50.426;15.352;2023-02-18T04:18:31;2.17;;;0.65;;
77798;SDS011;66989;50.426;15.352;2023-02-18T04:20:56;3.92;;;0.90;;
77798;SDS011;66989;50.426;15.352;2023-02-18T04:23:22;4.68;;;1.05;;
77798;SDS011;66989;50.426;15.352;2023-02-18T04:25:47;4.00;;;0.70;;
77798;SDS011;66989;50.426;15.352;2023-02-18T04:28:13;4.00;;;0.80;;
77798;SDS011;66989;50.426;15.352;2023-02-18T04:30:40;4.15;;;0.63;;
77798;SDS011;66989;50.426;15.352;2023-02-18T04:33:06;3.47;;;1.15;;
77798;SDS011;66989;50.426;15.352;2023-02-18T04:35:32;3.83;;;0.82;;
77798;SDS011;66989;50.426;15.352;2023-02-18T04:37:57;2.25;;;0.35;;
77798;SDS011;66989;50.426;15.352;2023-02-18T04:40:23;2.15;;;0.50;;
77798;SDS011;66989;50.426;15.352;2023-02-18T04:42:50;4.07;;;1.15;;
77798;SDS011;66989;50.426;15.352;2023-02-18T04:45:16;4.25;;;0.52;;
77798;SDS011;66989;50.426;15.352;2023-02-18T04:47:41;3.58;;;0.80;;
77798;SDS011;66989;50.426;15.352;2023-02-18T04:50:07;5.18;;;0.77;;
77798;SDS011;66989;50.426;15.352;2023-02-18T04:52:32;2.10;;;0.30;;
77798;SDS011;66989;50.426;15.352;2023-02-18T04:54:58;1.83;;;0.28;;
77798;SDS011;66989;50.426;15.352;2023-02-18T04:57:23;3.53;;;0.55;;
77798;SDS011;66989;50.426;15.352;2023-02-18T04:59:49;2.05;;;0.73;;
77798;SDS011;66989;50.426;15.352;2023-02-18T05:02:14;2.72;;;0.52;;
77798;SDS011;66989;50.426;15.352;2023-02-18T05:04:39;3.80;;;1.05;;
77798;SDS011;66989;50.426;15.352;2023-02-18T05:07:04;3.27;;;0.77;;
77798;SDS011;66989;50.426;15.352;2023-02-18T05:09:30;8.38;;;2.08;;
77798;SDS011;66989;50.426;15.352;2023-02-18T05:11:55;2.13;;;0.20;;
77798;SDS011;66989;50.426;15.352;2023-02-18T05:14:21;2.10;;;0.57;;
77798;SDS011;66989;50.426;15.352;2023-02-18T05:16:46;4.20;;;0.60;;
77798;SDS011;66989;50.426;15.352;2023-02-18T05:19:12;2.50;;;0.50;;
77798;SDS011;66989;50.426;15.352;2023-02-18T05:21:39;5.57;;;1.42;;
77798;SDS011;66989;50.426;15.352;2023-02-18T05:24:05;3.28;;;0.70;;
77798;SDS011;66989;50.426;15.352;2023-02-18T05:26:30;3.15;;;0.65;;
77798;SDS011;66989;50.426;15.352;2023-02-18T05:28:56;2.83;;;0.45;;
77798;SDS011;66989;50.426;15.352;2023-02-18T05:31:21;2.70;;;0.82;;
77798;SDS011;66989;50.426;15.352;2023-02-18T05:33:47;4.85;;;0.55;;
77798;SDS011;66989;50.426;15.352;2023-02-18T05:36:12;3.00;;;1.55;;
77798;SDS011;66989;50.426;15.352;2023-02-18T05:38:38;6.78;;;0.90;;
77798;SDS011;66989;50.426;15.352;2023-02-18T05:41:03;2.95;;;0.90;;
77798;SDS011;66989;50.426;15.352;2023-02-18T05:43:29;6.07;;;0.40;;
77798;SDS011;66989;50.426;15.352;2023-02-18T05:45:54;4.57;;;1.13;;
77798;SDS011;66989;50.426;15.352;2023-02-18T05:48:20;5.90;;;1.42;;
77798;SDS011;66989;50.426;15.352;2023-02-18T05:50:45;4.30;;;0.50;;
77798;SDS011;66989;50.426;15.352;2023-02-18T05:53:10;3.40;;;0.57;;
77798;SDS011;66989;50.426;15.352;2023-02-18T05:55:36;2.88;;;1.65;;
77798;SDS011;66989;50.426;15.352;2023-02-18T05:58:03;3.47;;;0.68;;
77798;SDS011;66989;50.426;15.352;2023-02-18T06:00:29;2.47;;;0.63;;
77798;SDS011;66989;50.426;15.352;2023-02-18T06:02:55;6.93;;;0.75;;
77798;SDS011;66989;50.426;15.352;2023-02-18T06:05:21;2.40;;;1.48;;
77798;SDS011;66989;50.426;15.352;2023-02-18T06:07:47;1.17;;;0.38;;
77798;SDS011;66989;50.426;15.352;2023-02-18T06:10:12;4.63;;;0.57;;
77798;SDS011;66989;50.426;15.352;2023-02-18T06:12:38;4.88;;;0.75;;
77798;SDS011;66989;50.426;15.352;2023-02-18T06:15:03;7.13;;;0.43;;
77798;SDS011;66989;50.426;15.352;2023-02-18T06:17:29;11.55;;;4.68;;
77798;SDS011;66989;50.426;15.352;2023-02-18T06:19:55;5.80;;;1.23;;
77798;SDS011;66989;50.426;15.352;2023-02-18T06:22:20;3.47;;;0.57;;
77798;SDS011;66989;50.426;15.352;2023-02-18T06:24:46;3.88;;;0.57;;
77798;SDS011;66989;50.426;15.352;2023-02-18T06:27:11;2.75;;;1.27;;
77798;SDS011;66989;50.426;15.352;2023-02-18T06:29:37;3.17;;;0.63;;
77798;SDS011;66989;50.426;15.352;2023-02-18T06:32:02;6.38;;;2.03;;
77798;SDS011;66989;50.426;15.352;2023-02-18T06:34:28;5.38;;;1.90;;
77798;SDS011;66989;50.426;15.352;2023-02-18T06:36:53;4.25;;;1.00;;
77798;SDS011;66989;50.426;15.352;2023-02-18T06:39:18;4.93;;;1.48;;
77798;SDS011;66989;50.426;15.352;2023-02-18T06:41:44;3.60;;;1.17;;
77798;SDS011;66989;50.426;15.352;2023-02-18T06:44:11;4.85;;;0.82;;
77798;SDS011;66989;50.426;15.352;2023-02-18T06:46:36;5.93;;;0.80;;
77798;SDS011;66989;50.426;15.352;2023-02-18T06:49:02;5.45;;;2.90;;
77798;SDS011;66989;50.426;15.352;2023-02-18T06:51:27;2.80;;;0.55;;
77798;SDS011;66989;50.426;15.352;2023-02-18T06:53:53;4.97;;;0.52;;
77798;SDS011;66989;50.426;15.352;2023-02-18T06:56:18;3.03;;;0.90;;
77798;SDS011;66989;50.426;15.352;2023-02-18T06:58:44;5.85;;;1.63;;
77798;SDS011;66989;50.426;15.352;2023-02-18T07:01:09;2.55;;;0.80;;
77798;SDS011;66989;50.426;15.352;2023-02-18T07:03:34;7.97;;;1.42;;
77798;SDS011;66989;50.426;15.352;2023-02-18T07:06:03;7.00;;;1.10;;
77798;SDS011;66989;50.426;15.352;2023-02-18T07:08:31;6.07;;;1.20;;
77798;SDS011;66989;50.426;15.352;2023-02-18T07:11:00;4.35;;;1.33;;
77798;SDS011;66989;50.426;15.352;2023-02-18T07:13:26;5.55;;;1.75;;
77798;SDS011;66989;50.426;15.352;2023-02-18T07:15:52;2.63;;;0.70;;
77798;SDS011;66989;50.426;15.352;2023-02-18T07:18:17;4.85;;;1.60;;
77798;SDS011;66989;50.426;15.352;2023-02-18T07:20:43;1.73;;;0.63;;
77798;SDS011;66989;50.426;15.352;2023-02-18T07:23:08;3.80;;;2.10;;
77798;SDS011;66989;50.426;15.352;2023-02-18T07:25:37;4.80;;;2.50;;
77798;SDS011;66989;50.426;15.352;2023-02-18T07:28:05;5.13;;;1.60;;
77798;SDS011;66989;50.426;15.352;2023-02-18T07:30:30;7.95;;;2.00;;
77798;SDS011;66989;50.426;15.352;2023-02-18T07:32:59;5.90;;;1.27;;
77798;SDS011;66989;50.426;15.352;2023-02-18T07:35:25;4.32;;;1.52;;
77798;SDS011;66989;50.426;15.352;2023-02-18T07:37:51;10.18;;;1.80;;
77798;SDS011;66989;50.426;15.352;2023-02-18T07:40:17;6.50;;;1.80;;
77798;SDS011;66989;50.426;15.352;2023-02-18T07:42:54;6.28;;;1.63;;
77798;SDS011;66989;50.426;15.352;2023-02-18T07:45:24;4.47;;;1.27;;
77798;SDS011;66989;50.426;15.352;2023-02-18T07:47:53;5.20;;;2.15;;
77798;SDS011;66989;50.426;15.352;2023-02-18T07:50:21;7.30;;;2.67;;
77798;SDS011;66989;50.426;15.352;2023-02-18T07:52:46;4.80;;;1.45;;
77798;SDS011;66989;50.426;15.352;2023-02-18T07:55:15;5.60;;;2.15;;
77798;SDS011;66989;50.426;15.352;2023-02-18T07:57:43;7.75;;;2.45;;
77798;SDS011;66989;50.426;15.352;2023-02-18T08:00:29;4.28;;;1.95;;
77798;SDS011;66989;50.426;15.352;2023-02-18T08:02:54;4.70;;;2.22;;
77798;SDS011;66989;50.426;15.352;2023-02-18T08:05:23;9.40;;;2.40;;
77798;SDS011;66989;50.426;15.352;2023-02-18T08:07:50;5.30;;;2.30;;
77798;SDS011;66989;50.426;15.352;2023-02-18T08:10:18;6.95;;;2.42;;
77798;SDS011;66989;50.426;15.352;2023-02-18T08:12:43;34.00;;;17.67;;
77798;SDS011;66989;50.426;15.352;2023-02-18T08:15:09;12.73;;;4.95;;
77798;SDS011;66989;50.426;15.352;2023-02-18T08:17:34;8.52;;;2.83;;
77798;SDS011;66989;50.426;15.352;2023-02-18T08:20:01;5.88;;;2.75;;
77798;SDS011;66989;50.426;15.352;2023-02-18T08:22:29;4.47;;;2.20;;
77798;SDS011;66989;50.426;15.352;2023-02-18T08:24:55;7.25;;;3.20;;
77798;SDS011;66989;50.426;15.352;2023-02-18T08:27:20;6.97;;;2.75;;
77798;SDS011;66989;50.426;15.352;2023-02-18T08:29:50;5.93;;;2.75;;
77798;SDS011;66989;50.426;15.352;2023-02-18T08:32:16;10.52;;;2.53;;
77798;SDS011;66989;50.426;15.352;2023-02-18T08:34:42;5.68;;;1.80;;
77798;SDS011;66989;50.426;15.352;2023-02-18T08:37:07;5.85;;;2.33;;
77798;SDS011;66989;50.426;15.352;2023-02-18T08:39:33;7.00;;;1.98;;
77798;SDS011;66989;50.426;15.352;2023-02-18T08:42:00;5.95;;;2.05;;
77798;SDS011;66989;50.426;15.352;2023-02-18T08:44:25;6.13;;;2.03;;
77798;SDS011;66989;50.426;15.352;2023-02-18T08:46:53;10.82;;;2.72;;
77798;SDS011;66989;50.426;15.352;2023-02-18T08:49:20;6.80;;;2.50;;
77798;SDS011;66989;50.426;15.352;2023-02-18T08:51:48;9.32;;;3.22;;
77798;SDS011;66989;50.426;15.352;2023-02-18T08:54:14;12.02;;;4.13;;
77798;SDS011;66989;50.426;15.352;2023-02-18T08:56:40;11.57;;;4.18;;
77798;SDS011;66989;50.426;15.352;2023-02-18T08:59:07;14.27;;;5.22;;
77798;SDS011;66989;50.426;15.352;2023-02-18T09:01:36;11.50;;;3.72;;
77798;SDS011;66989;50.426;15.352;2023-02-18T09:04:03;10.63;;;3.75;;
77798;SDS011;66989;50.426;15.352;2023-02-18T09:06:29;12.20;;;4.47;;
77798;SDS011;66989;50.426;15.352;2023-02-18T09:08:54;7.93;;;3.55;;
77798;SDS011;66989;50.426;15.352;2023-02-18T09:11:20;8.45;;;3.17;;
77798;SDS011;66989;50.426;15.352;2023-02-18T09:13:45;8.65;;;3.70;;
77798;SDS011;66989;50.426;15.352;2023-02-18T09:16:12;9.07;;;3.60;;
77798;SDS011;66989;50.426;15.352;2023-02-18T09:18:43;10.90;;;4.07;;
77798;SDS011;66989;50.426;15.352;2023-02-18T09:21:10;8.32;;;3.92;;
77798;SDS011;66989;50.426;15.352;2023-02-18T09:23:37;8.35;;;3.67;;
77798;SDS011;66989;50.426;15.352;2023-02-18T09:28:30;9.10;;;4.05;;
77798;SDS011;66989;50.426;15.352;2023-02-18T09:30:56;9.90;;;3.60;;
77798;SDS011;66989;50.426;15.352;2023-02-18T09:33:21;8.93;;;3.28;;
77798;SDS011;66989;50.426;15.352;2023-02-18T09:35:47;51.03;;;18.05;;
77798;SDS011;66989;50.426;15.352;2023-02-18T09:38:14;59.63;;;22.50;;
77798;SDS011;66989;50.426;15.352;2023-02-18T09:40:42;46.28;;;20.27;;
77798;SDS011;66989;50.426;15.352;2023-02-18T09:43:30;32.30;;;14.38;;
77798;SDS011;66989;50.426;15.352;2023-02-18T09:45:59;27.10;;;13.32;;
77798;SDS011;66989;50.426;15.352;2023-02-18T09:48:32;20.25;;;10.05;;
77798;SDS011;66989;50.426;15.352;2023-02-18T09:51:01;17.27;;;7.53;;
77798;SDS011;66989;50.426;15.352;2023-02-18T09:53:27;10.00;;;5.20;;
77798;SDS011;66989;50.426;15.352;2023-02-18T09:55:53;10.30;;;4.80;;
77798;SDS011;66989;50.426;15.352;2023-02-18T09:58:22;10.20;;;5.03;;
77798;SDS011;66989;50.426;15.352;2023-02-18T10:03:39;9.10;;;4.50;;
77798;SDS011;66989;50.426;15.352;2023-02-18T10:06:11;8.02;;;4.90;;
77798;SDS011;66989;50.426;15.352;2023-02-18T10:08:43;13.63;;;5.18;;
77798;SDS011;66989;50.426;15.352;2023-02-18T10:11:12;9.88;;;5.32;;
77798;SDS011;66989;50.426;15.352;2023-02-18T10:13:46;8.40;;;4.57;;
77798;SDS011;66989;50.426;15.352;2023-02-18T10:16:14;9.60;;;5.10;;
77798;SDS011;66989;50.426;15.352;2023-02-18T10:18:42;8.30;;;4.68;;
77798;SDS011;66989;50.426;15.352;2023-02-18T10:21:14;7.10;;;4.60;;
77798;SDS011;66989;50.426;15.352;2023-02-18T10:26:41;8.70;;;4.75;;
77798;SDS011;66989;50.426;15.352;2023-02-18T10:29:15;9.60;;;6.57;;
77798;SDS011;66989;50.426;15.352;2023-02-18T10:37:05;8.88;;;6.40;;
77798;SDS011;66989;50.426;15.352;2023-02-18T10:39:47;11.57;;;7.18;;
77798;SDS011;66989;50.426;15.352;2023-02-18T10:45:13;7.22;;;5.45;;
77798;SDS011;66989;50.426;15.352;2023-02-18T10:47:47;8.73;;;6.15;;
77798;SDS011;66989;50.426;15.352;2023-02-18T10:50:34;9.85;;;6.60;;
77798;SDS011;66989;50.426;15.352;2023-02-18T11:00:57;9.93;;;6.68;;
77798;SDS011;66989;50.426;15.352;2023-02-18T11:03:45;8.40;;;6.13;;
77798;SDS011;66989;50.426;15.352;2023-02-18T11:08:45;12.10;;;7.22;;
77798;SDS011;66989;50.426;15.352;2023-02-18T11:11:30;10.45;;;6.90;;
77798;SDS011;66989;50.426;15.352;2023-02-18T11:14:01;10.23;;;6.50;;
77798;SDS011;66989;50.426;15.352;2023-02-18T11:16:36;10.48;;;7.22;;
77798;SDS011;66989;50.426;15.352;2023-02-18T11:22:11;10.60;;;6.47;;
77798;SDS011;66989;50.426;15.352;2023-02-18T11:24:42;10.00;;;6.40;;
77798;SDS011;66989;50.426;15.352;2023-02-18T11:27:23;11.05;;;6.38;;
77798;SDS011;66989;50.426;15.352;2023-02-18T11:29:59;9.43;;;6.78;;
77798;SDS011;66989;50.426;15.352;2023-02-18T11:32:28;7.38;;;4.93;;
77798;SDS011;66989;50.426;15.352;2023-02-18T11:34:54;9.40;;;5.10;;
77798;SDS011;66989;50.426;15.352;2023-02-18T11:37:20;7.97;;;5.05;;
77798;SDS011;66989;50.426;15.352;2023-02-18T11:39:51;8.38;;;5.53;;
77798;SDS011;66989;50.426;15.352;2023-02-18T11:42:19;10.55;;;6.90;;
77798;SDS011;66989;50.426;15.352;2023-02-18T11:44:52;7.38;;;4.40;;
77798;SDS011;66989;50.426;15.352;2023-02-18T11:47:22;7.07;;;4.57;;
77798;SDS011;66989;50.426;15.352;2023-02-18T11:50:01;6.80;;;4.97;;
77798;SDS011;66989;50.426;15.352;2023-02-18T11:52:39;6.10;;;3.95;;
77798;SDS011;66989;50.426;15.352;2023-02-18T11:57:43;7.47;;;3.25;;
77798;SDS011;66989;50.426;15.352;2023-02-18T12:00:20;3.53;;;2.55;;
77798;SDS011;66989;50.426;15.352;2023-02-18T12:02:46;10.27;;;5.82;;
77798;SDS011;66989;50.426;15.352;2023-02-18T12:05:22;22.95;;;10.15;;
77798;SDS011;66989;50.426;15.352;2023-02-18T12:08:00;39.13;;;14.73;;
77798;SDS011;66989;50.426;15.352;2023-02-18T12:21:29;5.28;;;3.65;;
77798;SDS011;66989;50.426;15.352;2023-02-18T12:27:20;3.63;;;1.42;;
77798;SDS011;66989;50.426;15.352;2023-02-18T12:46:58;2.70;;;1.42;;
77798;SDS011;66989;50.426;15.352;2023-02-18T12:49:32;1.42;;;0.47;;
77798;SDS011;66989;50.426;15.352;2023-02-18T12:57:47;2.13;;;1.35;;
77798;SDS011;66989;50.426;15.352;2023-02-18T13:03:10;3.08;;;1.25;;
77798;SDS011;66989;50.426;15.352;2023-02-18T13:05:43;2.53;;;1.33;;
77798;SDS011;66989;50.426;15.352;2023-02-18T13:11:03;2.97;;;1.70;;
77798;SDS011;66989;50.426;15.352;2023-02-18T13:14:08;3.97;;;1.35;;
77798;SDS011;66989;50.426;15.352;2023-02-18T13:16:40;2.10;;;1.15;;
77798;SDS011;66989;50.426;15.352;2023-02-18T13:19:26;4.28;;;1.80;;
77798;SDS011;66989;50.426;15.352;2023-02-18T13:22:03;5.22;;;2.50;;
77798;SDS011;66989;50.426;15.352;2023-02-18T13:24:34;3.58;;;1.92;;
77798;SDS011;66989;50.426;15.352;2023-02-18T13:27:07;4.35;;;2.55;;
77798;SDS011;66989;50.426;15.352;2023-02-18T13:29:46;3.70;;;2.08;;
77798;SDS011;66989;50.426;15.352;2023-02-18T13:40:16;2.87;;;1.83;;
77798;SDS011;66989;50.426;15.352;2023-02-18T13:42:45;3.78;;;1.90;;
77798;SDS011;66989;50.426;15.352;2023-02-18T13:45:22;4.70;;;2.17;;
77798;SDS011;66989;50.426;15.352;2023-02-18T13:47:57;3.38;;;2.25;;
77798;SDS011;66989;50.426;15.352;2023-02-18T13:50:27;3.53;;;2.05;;
77798;SDS011;66989;50.426;15.352;2023-02-18T13:58:43;2.53;;;1.75;;
77798;SDS011;66989;50.426;15.352;2023-02-18T14:01:21;3.78;;;2.28;;
77798;SDS011;66989;50.426;15.352;2023-02-18T14:20:55;4.35;;;3.05;;
77798;SDS011;66989;50.426;15.352;2023-02-18T14:28:48;3.58;;;2.53;;
77798;SDS011;66989;50.426;15.352;2023-02-18T14:31:29;5.60;;;2.70;;
77798;SDS011;66989;50.426;15.352;2023-02-18T14:36:34;4.03;;;2.37;;
77798;SDS011;66989;50.426;15.352;2023-02-18T14:42:02;4.13;;;2.63;;
77798;SDS011;66989;50.426;15.352;2023-02-18T14:47:55;7.10;;;2.80;;
77798;SDS011;66989;50.426;15.352;2023-02-18T14:50:31;7.25;;;2.90;;
77798;SDS011;66989;50.426;15.352;2023-02-18T14:53:02;7.43;;;3.10;;
77798;SDS011;66989;50.426;15.352;2023-02-18T14:55:32;7.38;;;3.90;;
77798;SDS011;66989;50.426;15.352;2023-02-18T14:58:01;6.50;;;3.60;;
77798;SDS011;66989;50.426;15.352;2023-02-18T15:00:32;4.40;;;2.53;;
77798;SDS011;66989;50.426;15.352;2023-02-18T15:03:03;9.75;;;4.55;;
77798;SDS011;66989;50.426;15.352;2023-02-18T15:05:29;7.57;;;3.33;;
77798;SDS011;66989;50.426;15.352;2023-02-18T15:08:00;4.78;;;2.17;;
77798;SDS011;66989;50.426;15.352;2023-02-18T15:10:30;3.78;;;2.13;;
77798;SDS011;66989;50.426;15.352;2023-02-18T15:12:59;3.10;;;2.05;;
77798;SDS011;66989;50.426;15.352;2023-02-18T15:15:27;2.83;;;1.20;;
77798;SDS011;66989;50.426;15.352;2023-02-18T15:17:52;3.25;;;1.33;;
77798;SDS011;66989;50.426;15.352;2023-02-18T15:20:18;3.58;;;1.38;;
77798;SDS011;66989;50.426;15.352;2023-02-18T15:22:44;3.30;;;1.00;;
77798;SDS011;66989;50.426;15.352;2023-02-18T15:25:12;2.70;;;1.15;;
77798;SDS011;66989;50.426;15.352;2023-02-18T15:27:40;1.77;;;0.85;;
77798;SDS011;66989;50.426;15.352;2023-02-18T15:32:44;3.33;;;1.50;;
77798;SDS011;66989;50.426;15.352;2023-02-18T15:35:15;4.90;;;1.92;;
77798;SDS011;66989;50.426;15.352;2023-02-18T15:37:46;5.80;;;1.38;;
77798;SDS011;66989;50.426;15.352;2023-02-18T15:40:31;5.63;;;2.33;;
77798;SDS011;66989;50.426;15.352;2023-02-18T15:43:01;6.13;;;1.30;;
77798;SDS011;66989;50.426;15.352;2023-02-18T15:45:31;3.33;;;1.63;;
77798;SDS011;66989;50.426;15.352;2023-02-18T15:48:00;2.95;;;1.13;;
77798;SDS011;66989;50.426;15.352;2023-02-18T15:50:27;4.43;;;1.92;;
77798;SDS011;66989;50.426;15.352;2023-02-18T15:52:57;3.67;;;2.08;;
77798;SDS011;66989;50.426;15.352;2023-02-18T15:55:32;3.40;;;1.50;;
77798;SDS011;66989;50.426;15.352;2023-02-18T15:58:02;3.75;;;1.20;;
77798;SDS011;66989;50.426;15.352;2023-02-18T16:00:31;3.13;;;1.25;;
77798;SDS011;66989;50.426;15.352;2023-02-18T16:03:19;3.65;;;1.70;;
77798;SDS011;66989;50.426;15.352;2023-02-18T16:08:54;3.75;;;1.40;;
77798;SDS011;66989;50.426;15.352;2023-02-18T16:11:26;5.15;;;1.20;;
77798;SDS011;66989;50.426;15.352;2023-02-18T16:13:56;2.65;;;1.20;;
77798;SDS011;66989;50.426;15.352;2023-02-18T16:16:29;4.93;;;1.92;;
77798;SDS011;66989;50.426;15.352;2023-02-18T16:18:57;4.15;;;1.00;;
77798;SDS011;66989;50.426;15.352;2023-02-18T16:21:25;6.28;;;1.73;;
77798;SDS011;66989;50.426;15.352;2023-02-18T16:23:58;5.18;;;1.67;;
77798;SDS011;66989;50.426;15.352;2023-02-18T16:29:22;4.97;;;1.95;;
77798;SDS011;66989;50.426;15.352;2023-02-18T16:31:49;4.53;;;1.48;;
77798;SDS011;66989;50.426;15.352;2023-02-18T16:34:15;6.50;;;3.05;;
77798;SDS011;66989;50.426;15.352;2023-02-18T16:36:40;6.68;;;2.63;;
77798;SDS011;66989;50.426;15.352;2023-02-18T16:39:27;7.65;;;3.15;;
77798;SDS011;66989;50.426;15.352;2023-02-18T16:41:56;6.53;;;1.70;;
77798;SDS011;66989;50.426;15.352;2023-02-18T16:44:21;14.55;;;4.50;;
77798;SDS011;66989;50.426;15.352;2023-02-18T16:46:47;4.47;;;1.38;;
77798;SDS011;66989;50.426;15.352;2023-02-18T16:49:12;7.55;;;2.42;;
77798;SDS011;66989;50.426;15.352;2023-02-18T16:51:38;11.35;;;3.70;;
77798;SDS011;66989;50.426;15.352;2023-02-18T16:54:14;3.78;;;1.10;;
77798;SDS011;66989;50.426;15.352;2023-02-18T16:56:40;3.30;;;1.10;;
77798;SDS011;66989;50.426;15.352;2023-02-18T16:59:06;2.95;;;0.98;;
77798;SDS011;66989;50.426;15.352;2023-02-18T17:01:36;5.28;;;1.00;;
77798;SDS011;66989;50.426;15.352;2023-02-18T17:04:06;2.35;;;0.68;;
77798;SDS011;66989;50.426;15.352;2023-02-18T17:06:36;3.85;;;1.10;;
77798;SDS011;66989;50.426;15.352;2023-02-18T17:09:01;8.07;;;2.22;;
77798;SDS011;66989;50.426;15.352;2023-02-18T17:11:41;2.03;;;0.70;;
77798;SDS011;66989;50.426;15.352;2023-02-18T17:14:14;1.73;;;0.63;;
77798;SDS011;66989;50.426;15.352;2023-02-18T17:16:47;3.90;;;1.25;;
77798;SDS011;66989;50.426;15.352;2023-02-18T17:19:14;2.20;;;1.00;;
77798;SDS011;66989;50.426;15.352;2023-02-18T17:21:40;1.50;;;0.22;;
77798;SDS011;66989;50.426;15.352;2023-02-18T17:24:16;1.85;;;0.60;;
77798;SDS011;66989;50.426;15.352;2023-02-18T17:26:42;1.58;;;0.65;;
77798;SDS011;66989;50.426;15.352;2023-02-18T17:29:08;2.28;;;1.13;;
77798;SDS011;66989;50.426;15.352;2023-02-18T17:31:35;1.55;;;0.45;;
77798;SDS011;66989;50.426;15.352;2023-02-18T17:34:03;4.78;;;0.88;;
77798;SDS011;66989;50.426;15.352;2023-02-18T17:36:31;1.65;;;0.57;;
77798;SDS011;66989;50.426;15.352;2023-02-18T17:38:57;0.70;;;0.35;;
77798;SDS011;66989;50.426;15.352;2023-02-18T17:41:23;1.58;;;0.52;;
77798;SDS011;66989;50.426;15.352;2023-02-18T17:43:51;7.15;;;4.80;;
77798;SDS011;66989;50.426;15.352;2023-02-18T17:46:17;1.60;;;0.57;;